createdAt,value
2018-05-26T00:04:53.618Z,17.90
2018-05-26T00:09:56.107Z,17.80
2018-05-26T00:14:58.607Z,17.70
2018-05-26T00:20:01.888Z,17.60
2018-05-26T00:25:04.387Z,17.50
2018-05-26T00:30:06.892Z,17.60
2018-05-26T00:35:09.495Z,17.60
2018-05-26T00:40:12.748Z,17.50
2018-05-26T00:45:15.222Z,17.40
2018-05-26T00:50:18.915Z,17.50
2018-05-26T00:55:21.395Z,17.50
2018-05-26T01:00:23.875Z,17.60
2018-05-26T01:05:26.415Z,17.50
2018-05-26T01:10:28.916Z,17.40
2018-05-26T01:15:31.408Z,17.30
2018-05-26T01:20:33.968Z,17.20
2018-05-26T01:25:36.480Z,17.10
2018-05-26T01:30:42.208Z,16.80
2018-05-26T01:35:44.737Z,16.70
2018-05-26T01:40:48.015Z,16.60
2018-05-26T01:45:50.574Z,16.50
2018-05-26T01:50:53.072Z,16.50
2018-05-26T01:55:55.576Z,16.50
2018-05-26T02:00:58.070Z,16.50
2018-05-26T02:06:00.559Z,16.40
2018-05-26T02:11:03.069Z,16.50
2018-05-26T02:16:05.551Z,16.40
2018-05-26T02:21:08.095Z,16.10
2018-05-26T02:26:11.357Z,16.20
2018-05-26T02:31:13.868Z,16.20
2018-05-26T02:36:16.474Z,16.20
2018-05-26T02:41:18.976Z,16.20
2018-05-26T02:46:22.249Z,16.00
2018-05-26T02:51:24.773Z,15.90
2018-05-26T02:56:27.262Z,15.90
2018-05-26T03:01:29.786Z,15.90
2018-05-26T03:06:38.673Z,15.80
2018-05-26T03:11:46.789Z,15.70
2018-05-26T03:16:52.789Z,15.80
2018-05-26T03:21:55.280Z,15.70
2018-05-26T03:26:57.779Z,15.60
2018-05-26T03:32:00.293Z,15.60
2018-05-26T03:37:02.834Z,15.60
2018-05-26T03:42:05.338Z,15.60
2018-05-26T03:47:07.862Z,15.60
2018-05-26T03:52:11.136Z,15.50
2018-05-26T03:57:25.636Z,15.50
2018-05-26T04:02:29.126Z,15.50
2018-05-26T04:07:31.599Z,15.60
2018-05-26T04:12:34.136Z,15.70
2018-05-26T04:17:36.635Z,15.60
2018-05-26T04:22:39.888Z,15.70
2018-05-26T04:27:43.576Z,15.60
2018-05-26T04:32:47.339Z,15.70
2018-05-26T04:37:53.249Z,16.10
2018-05-26T04:42:56.728Z,16.00
2018-05-26T04:47:59.285Z,16.40
2018-05-26T04:53:02.599Z,16.80
2018-05-26T04:58:05.236Z,16.70
2018-05-26T05:03:07.774Z,17.10
2018-05-26T05:08:10.301Z,17.40
2018-05-26T05:13:14.613Z,17.90
2018-05-26T05:18:18.046Z,17.90
2018-05-26T05:23:20.615Z,18.20
2018-05-26T05:28:23.163Z,18.50
2018-05-26T05:33:25.711Z,18.80
2018-05-26T05:38:29.220Z,19.00
2018-05-26T05:43:31.846Z,19.00
2018-05-26T05:48:38.143Z,19.20
2018-05-26T05:53:40.647Z,19.20
2018-05-26T05:58:43.224Z,19.40
2018-05-26T06:03:46.550Z,19.80
2018-05-26T06:08:49.056Z,19.70
2018-05-26T06:13:51.642Z,19.90
2018-05-26T06:18:54.204Z,20.10
2018-05-26T06:23:57.511Z,20.30
2018-05-26T06:29:00.781Z,20.60
2018-05-26T06:34:03.327Z,20.50
2018-05-26T06:39:05.836Z,20.90
2018-05-26T06:44:08.361Z,21.10
2018-05-26T06:49:10.927Z,21.40
2018-05-26T06:54:13.444Z,21.80
2018-05-26T06:59:16.072Z,22.00
2018-05-26T07:04:18.612Z,22.40
2018-05-26T07:09:21.172Z,22.70
2018-05-26T07:14:24.449Z,23.20
2018-05-26T07:19:26.984Z,23.10
2018-05-26T07:24:30.627Z,23.50
2018-05-26T07:29:34.347Z,23.40
2018-05-26T07:34:39.051Z,23.60
2018-05-26T07:39:41.577Z,23.70
2018-05-26T07:44:44.107Z,24.20
2018-05-26T07:49:46.620Z,24.30
2018-05-26T07:54:50.073Z,24.60
2018-05-26T07:59:52.629Z,24.80
2018-05-26T08:04:56.165Z,25.20
2018-05-26T08:09:59.432Z,25.50
2018-05-26T08:15:01.949Z,25.50
2018-05-26T08:20:06.613Z,25.80
2018-05-26T08:25:09.915Z,26.10
2018-05-26T08:30:12.433Z,26.10
2018-05-26T08:35:15.697Z,26.70
2018-05-26T08:40:19.041Z,26.60
2018-05-26T08:45:22.377Z,26.90
2018-05-26T08:50:25.135Z,26.80
2018-05-26T08:55:27.683Z,26.80
2018-05-26T09:00:30.216Z,26.90
2018-05-26T09:05:32.762Z,27.40
2018-05-26T09:10:35.310Z,27.60
2018-05-26T09:15:37.848Z,28.30
2018-05-26T09:20:40.404Z,28.30
2018-05-26T09:25:42.911Z,28.80
2018-05-26T09:30:46.212Z,29.30
2018-05-26T09:35:49.493Z,29.70
2018-05-26T09:40:52.011Z,29.60
2018-05-26T09:45:54.569Z,29.90
2018-05-26T09:50:57.088Z,29.20
2018-05-26T09:55:59.605Z,29.30
2018-05-26T10:01:02.900Z,30.30
2018-05-26T10:06:05.476Z,30.20
2018-05-26T10:11:08.739Z,30.70
2018-05-26T10:16:12.076Z,30.70
2018-05-26T10:21:14.654Z,31.20
2018-05-26T10:26:17.227Z,31.30
2018-05-26T10:31:19.756Z,31.60
2018-05-26T10:36:22.279Z,31.40
2018-05-26T10:41:26.302Z,31.80
2018-05-26T10:46:28.840Z,32.10
2018-05-26T10:51:31.384Z,31.70
2018-05-26T10:56:37.565Z,31.90
2018-05-26T11:01:40.107Z,31.90
2018-05-26T11:06:47.472Z,32.80
2018-05-26T11:11:50.060Z,32.70
2018-05-26T11:16:53.625Z,31.80
2018-05-26T11:21:56.918Z,31.30
2018-05-26T11:27:00.241Z,31.20
2018-05-26T11:32:03.510Z,31.30
2018-05-26T11:37:06.011Z,31.20
2018-05-26T11:42:08.583Z,31.90
2018-05-26T11:47:11.096Z,32.30
2018-05-26T11:52:13.605Z,32.60
2018-05-26T11:57:16.133Z,32.90
2018-05-26T12:02:18.664Z,32.60
2018-05-26T12:07:21.187Z,32.70
2018-05-26T12:12:24.509Z,33.20
2018-05-26T12:17:27.784Z,33.10
2018-05-26T12:22:30.287Z,33.10
2018-05-26T12:27:32.799Z,32.90
2018-05-26T12:32:36.094Z,32.70
2018-05-26T12:37:38.624Z,32.70
2018-05-26T12:42:41.887Z,32.40
2018-05-26T12:47:44.442Z,32.30
2018-05-26T12:52:46.978Z,32.50
2018-05-26T12:57:50.469Z,32.90
2018-05-26T13:02:53.002Z,32.80
2018-05-26T13:07:55.670Z,33.30
2018-05-26T13:12:58.997Z,33.60
2018-05-26T13:18:01.522Z,33.50
2018-05-26T13:23:04.850Z,33.20
2018-05-26T13:28:07.442Z,33.10
2018-05-26T13:33:10.019Z,33.00
2018-05-26T13:38:13.276Z,32.90
2018-05-26T13:43:17.658Z,32.80
2018-05-26T13:48:20.149Z,32.90
2018-05-26T13:53:23.571Z,33.40
2018-05-26T13:58:26.758Z,33.60
2018-05-26T14:03:29.281Z,33.50
2018-05-26T14:08:32.566Z,32.60
2018-05-26T14:13:35.088Z,32.50
2018-05-26T14:18:38.375Z,32.40
2018-05-26T14:23:40.895Z,32.40
2018-05-26T14:28:44.179Z,32.90
2018-05-26T14:33:46.689Z,32.90
2018-05-26T14:38:49.989Z,33.00
2018-05-26T14:43:52.494Z,33.00
2018-05-26T14:48:55.798Z,33.30
2018-05-26T14:53:58.322Z,33.20
2018-05-26T14:59:00.828Z,33.50
2018-05-26T15:04:03.314Z,33.70
2018-05-26T15:09:06.147Z,33.40
2018-05-26T15:14:08.746Z,33.20
2018-05-26T15:19:11.259Z,32.80
2018-05-26T15:24:13.784Z,32.70
2018-05-26T15:29:16.326Z,32.80
2018-05-26T15:34:19.806Z,33.00
2018-05-26T15:39:22.371Z,33.10
2018-05-26T15:44:26.670Z,33.20
2018-05-26T15:49:29.218Z,33.10
2018-05-26T15:54:31.736Z,33.50
2018-05-26T15:59:34.250Z,33.60
2018-05-26T16:04:36.845Z,32.60
2018-05-26T16:09:39.392Z,32.70
2018-05-26T16:14:41.918Z,32.70
2018-05-26T16:19:44.470Z,31.90
2018-05-26T16:24:47.013Z,31.30
2018-05-26T16:29:49.519Z,31.50
2018-05-26T16:34:52.035Z,31.50
2018-05-26T16:39:55.311Z,31.80
2018-05-26T16:44:57.884Z,31.80
2018-05-26T16:50:00.425Z,32.10
2018-05-26T16:55:04.753Z,32.10
2018-05-26T17:00:07.284Z,32.00
2018-05-26T17:05:09.799Z,31.30
2018-05-26T17:10:12.338Z,30.90
2018-05-26T17:15:14.915Z,31.10
2018-05-26T17:20:17.519Z,31.40
2018-05-26T17:25:20.021Z,32.00
2018-05-26T17:30:22.728Z,32.40
2018-05-26T17:35:26.325Z,33.80
2018-05-26T17:40:28.823Z,35.10
2018-05-26T17:45:31.341Z,35.80
2018-05-26T17:50:33.908Z,35.50
2018-05-26T17:55:36.472Z,35.80
2018-05-26T18:00:38.996Z,35.70
2018-05-26T18:05:43.539Z,34.40
2018-05-26T18:10:46.263Z,33.20
2018-05-26T18:15:48.820Z,32.30
2018-05-26T18:20:51.352Z,31.40
2018-05-26T18:25:53.964Z,30.60
2018-05-26T18:30:58.381Z,29.40
2018-05-26T18:36:00.894Z,29.30
2018-05-26T18:41:03.444Z,28.80
2018-05-26T18:46:05.994Z,28.30
2018-05-26T18:51:08.631Z,27.80
2018-05-26T18:56:13.580Z,27.50
2018-05-26T19:01:16.360Z,27.20
2018-05-26T19:06:20.077Z,26.80
2018-05-26T19:11:22.999Z,26.50
2018-05-26T19:16:25.778Z,26.20
2018-05-26T19:21:28.413Z,25.90
2018-05-26T19:26:31.771Z,25.20
2018-05-26T19:31:34.363Z,25.20
2018-05-26T19:36:36.904Z,25.00
2018-05-26T19:41:42.763Z,24.70
2018-05-26T19:46:51.444Z,24.30
2018-05-26T19:51:53.989Z,24.20
2018-05-26T19:56:56.644Z,23.90
2018-05-26T20:02:02.055Z,23.60
2018-05-26T20:07:04.789Z,23.40
2018-05-26T20:12:07.354Z,23.20
2018-05-26T20:17:09.974Z,22.90
2018-05-26T20:22:13.315Z,22.60
2018-05-26T20:27:19.069Z,22.50
2018-05-26T20:32:21.754Z,22.40
2018-05-26T20:37:24.417Z,22.30
2018-05-26T20:42:26.997Z,22.10
2018-05-26T20:47:30.983Z,21.90
2018-05-26T20:52:35.872Z,21.80
2018-05-26T20:57:38.564Z,21.70
2018-05-26T21:02:41.093Z,21.40
2018-05-26T21:07:44.395Z,21.20
2018-05-26T21:12:46.927Z,21.10
2018-05-26T21:17:49.588Z,21.10
2018-05-26T21:22:52.252Z,21.00
2018-05-26T21:27:54.863Z,20.90
2018-05-26T21:32:58.499Z,20.90
2018-05-26T21:38:01.015Z,20.80
2018-05-26T21:43:04.491Z,20.60
2018-05-26T21:48:08.874Z,20.60
2018-05-26T21:53:12.385Z,20.60
2018-05-26T21:58:16.097Z,20.30
2018-05-26T22:03:23.650Z,20.10
2018-05-26T22:08:28.002Z,20.10
2018-05-26T22:13:30.718Z,20.10
2018-05-26T22:18:33.377Z,20.00
2018-05-26T22:23:36.749Z,19.90
2018-05-26T22:28:41.324Z,19.90
2018-05-26T22:33:43.979Z,19.70
2018-05-26T22:38:47.411Z,19.60
2018-05-26T22:43:49.999Z,19.50
2018-05-26T22:48:52.632Z,19.50
2018-05-26T22:53:55.181Z,19.30
2018-05-26T22:58:58.503Z,19.40
2018-05-26T23:04:01.113Z,19.30
2018-05-26T23:09:03.679Z,19.30
2018-05-26T23:14:07.062Z,19.10
2018-05-26T23:19:09.603Z,19.10
2018-05-26T23:24:12.198Z,19.10
2018-05-26T23:29:15.692Z,18.90
2018-05-26T23:34:19.023Z,18.70
2018-05-26T23:39:21.729Z,18.60
2018-05-26T23:44:24.280Z,18.70
2018-05-26T23:49:27.799Z,18.60
2018-05-26T23:54:30.314Z,18.50
2018-05-26T23:59:33.721Z,18.50
